Change the Weather History Date:

Monday, September 23, 2013

  Actual Average Record
Temperature  
Mean Temperature 31 °F -  
Max Temperature 28 °F 31 °F 42 °F (2012)
Min Temperature 28 °F 26 °F 23 °F (2000)
Degree Days  
Heating Degree Days 34    
Moisture  
Dew Point 30 °F    
Average Humidity 92    
Maximum Humidity 100    
Minimum Humidity 85    
Precipitation  
Precipitation 0.11 in - - ()
Sea Level Pressure  
Sea Level Pressure 29.71 in    
Wind  
Wind Speed 7 mph (NE)    
Max Wind Speed 13 mph    
Max Gust Speed -    
Visibility 7 miles    
Events Rain , Snow    
Averages and records for this station are not official NWS values.
T = Trace of Precipitation, MM = Missing Value Source: NWS Daily Summary

Daily Weather History Graph

Daily Weather History Graph

Search for Another Location

Airport or City:

Trip Planner

Search our weather history database for the weather conditions in past years. The results will help you decide how hot, cold, wet, or windy it might be!

Date:

Astronomy

Sep. 23, 2013 Rise Set
Actual Time 7:20 AM AKDT 7:30 PM AKDT
Civil Twilight 6:18 AM AKDT 8:32 PM AKDT
Nautical Twilight 4:59 AM AKDT 9:49 PM AKDT
Astronomical Twilight 3:11 AM AKDT 11:33 PM AKDT
Moon 6:54 PM AKDT (9/23) 2:59 PM AKDT (9/23)
Length of Visible Light 14h 13m
Length of Day
12h 10m
Waning Gibbous, 80% of the Moon is Illuminated
Sep 23
Waning Gibbous
Sep 26
Last Quarter
Oct 4
New
Oct 11
First Quarter
Oct 18
Full

Hourly Weather History & Observations

Time (AKDT) Temp. Windchill Dew Point Humidity Pressure Visibility Wind Dir Wind Speed Gust Speed Precip Events Conditions
12:01 AM 30.0 °F 25.2 °F 28.0 °F 92% 29.57 in 10.0 mi NNE 4.6 mph - N/A   Overcast
1:01 AM 30.9 °F 23.5 °F 28.0 °F 89% 29.57 in 10.0 mi NE 8.1 mph - N/A   Overcast
1:35 AM 30.2 °F 23.4 °F 28.4 °F 93% 29.57 in 10.0 mi NE 6.9 mph - N/A   Overcast
2:01 AM 30.9 °F 24.3 °F 28.9 °F 92% 29.58 in 10.0 mi ENE 6.9 mph - N/A   Overcast
3:01 AM 32.0 °F 24.2 °F 28.0 °F 85% 29.59 in 10.0 mi East 9.2 mph - N/A   Overcast
4:01 AM 32.0 °F 23.6 °F 28.4 °F 87% 29.59 in 10.0 mi ENE 10.4 mph - N/A   Overcast
4:17 AM 32.0 °F 24.2 °F 28.4 °F 87% 29.60 in 10.0 mi ENE 9.2 mph - N/A   Overcast
5:01 AM 33.1 °F 24.9 °F 30.0 °F 89% 29.61 in 10.0 mi East 10.4 mph - N/A   Overcast
5:13 AM 33.8 °F 25.3 °F 30.2 °F 87% 29.61 in 9.0 mi ESE 11.5 mph - 0.00 in   Overcast
5:38 AM 32.0 °F 23.6 °F 30.2 °F 93% 29.61 in 6.0 mi ESE 10.4 mph - 0.00 in   Overcast
6:01 AM 30.9 °F 23.5 °F 30.0 °F 96% 29.62 in 9.0 mi East 8.1 mph - N/A   Unknown
6:23 AM 32.0 °F 25.6 °F 30.2 °F 93% 29.62 in 10.0 mi East 6.9 mph - 0.00 in   Overcast
6:30 AM 32.0 °F 24.2 °F 30.2 °F 93% 29.62 in 10.0 mi East 9.2 mph - 0.00 in   Overcast
7:01 AM 32.0 °F 24.8 °F 30.0 °F 92% 29.63 in 10.0 mi East 8.1 mph - 0.00 in   Overcast
7:24 AM 32.0 °F 22.5 °F 30.2 °F 93% 29.63 in 6.0 mi ESE 12.7 mph - 0.00 in   Overcast
7:31 AM 32.0 °F 25.6 °F 30.2 °F 93% 29.64 in 4.0 mi East 6.9 mph - 0.00 in   Overcast
7:38 AM 32.0 °F 24.8 °F 30.2 °F 93% 29.64 in 8.0 mi ESE 8.1 mph - 0.00 in   Overcast
7:58 AM 32.0 °F 25.6 °F 30.2 °F 93% 29.64 in 7.0 mi East 6.9 mph - 0.00 in   Overcast
8:01 AM 32.0 °F 24.8 °F 30.9 °F 96% 29.64 in 7.0 mi East 8.1 mph - 0.00 in   Overcast
8:26 AM 32.0 °F 24.8 °F 30.2 °F 93% 29.64 in 7.0 mi East 8.1 mph - N/A   Overcast
8:52 AM 32.0 °F 25.6 °F 30.2 °F 93% 29.65 in 2.5 mi East 6.9 mph - 0.00 in   Overcast
9:01 AM 32.0 °F 24.8 °F 30.2 °F 93% 29.65 in 5.0 mi East 8.1 mph - 0.00 in   Overcast
10:01 AM 32.0 °F 24.8 °F 30.9 °F 96% 29.66 in 4.0 mi East 8.1 mph - 0.00 in   Overcast
10:49 AM 32.0 °F 24.2 °F 30.2 °F 93% 29.67 in 9.0 mi East 9.2 mph - 0.00 in Rain Light Rain
11:01 AM 33.1 °F 26.1 °F 30.9 °F 92% 29.67 in 10.0 mi East 8.1 mph - 0.00 in   Overcast
11:28 AM 33.8 °F 26.4 °F 30.2 °F 87% 29.68 in 6.0 mi East 9.2 mph - 0.00 in Rain Light Rain
12:01 PM 33.1 °F 26.9 °F 30.0 °F 89% 29.69 in 10.0 mi East 6.9 mph - 0.00 in   Overcast
1:01 PM 33.1 °F 27.7 °F 30.9 °F 92% 29.71 in 9.0 mi East 5.8 mph - 0.02 in   Overcast
2:01 PM 33.1 °F 27.7 °F 30.0 °F 89% 29.72 in 10.0 mi ESE 5.8 mph - 0.04 in   Overcast
3:01 PM 34.0 °F 29.8 °F 30.9 °F 89% 29.74 in 10.0 mi South 4.6 mph - 0.03 in   Overcast
3:09 PM 33.8 °F 27.7 °F 30.2 °F 87% 29.74 in 10.0 mi South 6.9 mph - N/A   Overcast
3:23 PM 33.8 °F 29.6 °F 30.2 °F 87% 29.75 in 7.0 mi South 4.6 mph - N/A   Overcast
4:01 PM 33.1 °F 30.0 °F 30.9 °F 92% 29.76 in 6.0 mi SW 3.5 mph - 0.01 in   Overcast
4:15 PM 33.8 °F 29.6 °F 30.2 °F 87% 29.77 in 2.5 mi WNW 4.6 mph - N/A   Overcast
4:22 PM 33.8 °F 29.6 °F 30.2 °F 87% 29.77 in 1.0 mi NW 4.6 mph - 0.00 in   Overcast
4:33 PM 33.8 °F 29.6 °F 30.2 °F 87% 29.77 in 1.2 mi NW 4.6 mph - 0.00 in Rain Light Rain
5:01 PM 32.0 °F 27.5 °F 30.9 °F 96% 29.78 in 1.5 mi NW 4.6 mph - 0.00 in   Overcast
5:21 PM 32.0 °F 28.7 °F 30.2 °F 93% 29.78 in 3.0 mi NW 3.5 mph - 0.00 in   Overcast
5:33 PM 32.0 °F 27.5 °F 30.2 °F 93% 29.78 in 3.0 mi NW 4.6 mph - 0.00 in Snow Light Snow
5:40 PM 32.0 °F 27.5 °F 30.2 °F 93% 29.79 in 2.5 mi NW 4.6 mph - 0.00 in Snow Light Snow
5:56 PM 32.0 °F 27.5 °F 30.2 °F 93% 29.79 in 1.5 mi NW 4.6 mph - 0.01 in Snow Light Snow
6:01 PM 32.0 °F 27.5 °F 30.0 °F 92% 29.79 in 1.8 mi NW 4.6 mph - 0.01 in Snow Light Snow
6:09 PM 32.0 °F 26.4 °F 30.2 °F 93% 29.79 in 2.0 mi NW 5.8 mph - 0.00 in Snow Light Snow
6:16 PM 32.0 °F 27.5 °F 30.2 °F 93% 29.79 in 1.5 mi NW 4.6 mph - 0.00 in Snow Light Snow
6:22 PM 32.0 °F 28.7 °F 30.2 °F 93% 29.79 in 3.0 mi NW 3.5 mph - 0.00 in Snow Light Snow
6:48 PM 32.0 °F 28.7 °F 30.2 °F 93% 29.80 in 6.0 mi NW 3.5 mph - 0.00 in Snow Light Snow
7:01 PM 32.0 °F 28.7 °F 30.0 °F 92% 29.80 in 5.0 mi NW 3.5 mph - 0.00 in Snow Light Snow
7:26 PM 30.2 °F 26.7 °F 30.2 °F 100% 29.80 in 2.0 mi WNW 3.5 mph - N/A Snow Light Snow
7:40 PM 30.2 °F 24.3 °F 30.2 °F 100% 29.81 in 5.0 mi West 5.8 mph - N/A Snow Light Snow
8:01 PM 30.9 °F 24.3 °F 28.9 °F 92% 29.81 in 6.0 mi West 6.9 mph - N/A   Overcast
8:25 PM 30.2 °F 24.3 °F 28.4 °F 93% 29.81 in 6.0 mi West 5.8 mph - 0.00 in Snow Light Snow
9:01 PM 30.0 °F 24.1 °F 28.0 °F 92% 29.82 in 7.0 mi West 5.8 mph - 0.00 in Snow Light Snow
9:27 PM 28.4 °F 23.3 °F 28.4 °F 100% 29.82 in 9.0 mi West 4.6 mph - 0.00 in Snow Light Snow
10:01 PM 30.0 °F - 28.0 °F 92% 29.83 in 9.0 mi Calm Calm - 0.00 in Snow Light Snow
11:01 PM 28.9 °F 21.9 °F 28.0 °F 96% 29.84 in 10.0 mi WSW 6.9 mph - 0.00 in   Overcast